Time;durP1;ratioP1;P1;durP2;ratioP2;P2;SDS_P1;SDS_P2;PMS_P1;PMS_P2;Temp;Humidity;BMP_temperature;BMP_pressure;BME280_temperature;BME280_humidity;BME280_pressure;Samples;Min_cycle;Max_cycle;Signal;HPM_P1;HPM_P2
2022/06/08 00:01:25;;;;;;;3.60;2.60;;;;;;;16.11;67.65;99366.45;109392;1274;22472;-61
2022/06/08 00:03:54;;;;;;;3.30;2.50;;;;;;;16.14;67.24;99363.06;109226;1276;138098;-61
2022/06/08 00:06:21;;;;;;;4.70;2.10;;;;;;;16.19;66.83;99366.83;109143;1276;22467;-61
2022/06/08 00:08:48;;;;;;;3.40;2.30;;;;;;;16.23;67.13;99364.57;109305;1276;22472;-61
2022/06/08 00:11:15;;;;;;;2.80;2.40;;;;;;;16.26;67.40;99370.41;109179;1274;137239;-61
2022/06/08 00:13:42;;;;;;;2.40;1.90;;;;;;;16.27;67.42;99369.85;109363;1274;22429;-61
2022/06/08 00:16:09;;;;;;;3.40;1.90;;;;;;;16.27;67.81;99368.69;109208;1274;138740;-61
2022/06/08 00:18:36;;;;;;;4.50;1.80;;;;;;;16.27;68.09;99368.41;109221;1276;22417;-61
2022/06/08 00:21:03;;;;;;;4.90;1.90;;;;;;;16.26;67.97;99367.48;109200;1274;138118;-61
2022/06/08 00:23:30;;;;;;;5.30;1.90;;;;;;;16.24;67.92;99369.11;109353;1274;23740;-61
2022/06/08 00:25:57;;;;;;;4.90;1.90;;;;;;;16.21;67.85;99364.54;109234;1276;22459;-61
2022/06/08 00:28:24;;;;;;;3.00;1.90;;;;;;;16.18;67.81;99366.55;109130;1276;137260;-61
2022/06/08 00:30:51;;;;;;;5.00;2.10;;;;;;;16.13;67.84;99366.27;109299;1274;22414;-61
2022/06/08 00:33:19;;;;;;;3.30;1.90;;;;;;;16.09;67.96;99367.20;109121;1276;139102;-61
2022/06/08 00:35:47;;;;;;;4.10;2.00;;;;;;;16.04;68.22;99366.21;108129;1276;24141;-60
2022/06/08 00:38:13;;;;;;;2.00;1.80;;;;;;;15.99;68.15;99364.17;105015;1275;24227;-60
2022/06/08 00:40:43;;;;;;;3.20;2.00;;;;;;;15.93;68.37;99362.98;104633;1277;138395;-61
2022/06/08 00:43:10;;;;;;;5.30;2.00;;;;;;;15.88;68.66;99360.80;105057;1276;22984;-60
2022/06/08 00:45:37;;;;;;;2.80;2.00;;;;;;;15.82;68.65;99358.09;104986;1275;138086;-61
2022/06/08 00:48:05;;;;;;;4.60;2.00;;;;;;;15.77;68.66;99359.86;104949;1276;22583;-61
2022/06/08 00:50:42;;;;;;;4.80;2.00;;;;;;;15.74;68.79;99359.71;109148;1276;22539;-61
2022/06/08 00:53:09;;;;;;;;;;;;;;;15.68;68.84;99356.75;109097;1275;140019;-61
2022/06/08 00:55:37;;;;;;;2.50;2.10;;;;;;;15.61;68.93;99357.11;109187;1276;23468;-61
2022/06/08 00:58:25;;;;;;;4.20;1.70;;;;;;;15.54;68.94;99359.11;109189;1274;139025;-61
2022/06/08 01:00:52;;;;;;;4.20;1.90;;;;;;;15.48;69.21;99355.64;109329;1275;22449;-61
2022/06/08 01:03:19;;;;;;;2.80;1.90;;;;;;;15.46;69.42;99353.86;109051;1277;137823;-61
2022/06/08 01:05:57;;;;;;;2.40;2.10;;;;;;;15.44;69.52;99353.56;109234;1277;23437;-61
2022/06/08 01:08:31;;;;;;;4.20;2.20;;;;;;;15.39;69.59;99356.70;109269;1277;22257;-61
2022/06/08 01:11:04;;;;;;;3.30;2.40;;;;;;;15.33;69.54;99356.66;109193;1277;138606;-61
2022/06/08 01:13:33;;;;;;;4.80;2.10;;;;;;;15.29;69.72;99354.48;109201;1276;22664;-61
2022/06/08 01:16:02;;;;;;;3.00;2.00;;;;;;;15.24;69.85;99356.34;109139;1274;137617;-61
2022/06/08 01:18:29;;;;;;;2.90;2.20;;;;;;;15.19;69.86;99356.01;109174;1277;23476;-61
2022/06/08 01:21:18;;;;;;;2.50;2.30;;;;;;;15.14;69.93;99357.44;109089;1274;138652;-61
2022/06/08 01:23:50;;;;;;;5.60;2.10;;;;;;;15.09;70.09;99354.70;109305;1274;22558;-61
2022/06/08 01:26:21;;;;;;;3.50;2.00;;;;;;;15.04;70.22;99351.45;109415;1274;22420;-61
2022/06/08 01:28:56;;;;;;;3.00;2.20;;;;;;;15.00;70.41;99353.34;109174;1274;137645;-61
2022/06/08 01:31:28;;;;;;;4.70;2.50;;;;;;;14.98;70.61;99355.93;109312;1274;22430;-61
2022/06/08 01:34:04;;;;;;;2.90;2.20;;;;;;;14.96;70.74;99358.48;109241;1274;138532;-61
2022/06/08 01:37:04;;;;;;;3.50;2.70;;;;;;;14.92;70.85;99356.31;109347;1277;22431;-61
2022/06/08 01:39:38;;;;;;;4.50;2.30;;;;;;;14.86;71.15;99355.65;108883;1280;137559;-62
2022/06/08 01:42:21;;;;;;;3.90;2.70;;;;;;;14.81;71.29;99355.48;108975;1280;23217;-61
2022/06/08 01:45:33;;;;;;;5.60;2.90;;;;;;;14.77;71.36;99355.69;108925;1280;23397;-61
2022/06/08 01:48:16;;;;;;;7.20;2.20;;;;;;;14.73;71.61;99357.48;108956;1279;22242;-61
2022/06/08 01:50:46;;;;;;;4.60;2.80;;;;;;;14.69;71.83;99359.46;108895;1280;22430;-61
2022/06/08 01:53:21;;;;;;;7.80;3.20;;;;;;;14.64;71.96;99358.73;108860;1280;138022;-61
2022/06/08 01:55:50;;;;;;;3.90;2.50;;;;;;;14.62;72.18;99353.86;108942;1280;22508;-61
2022/06/08 01:58:47;;;;;;;5.80;2.40;;;;;;;14.62;72.47;99355.56;108795;1280;139841;-61
2022/06/08 02:01:43;;;;;;;4.30;2.60;;;;;;;14.57;72.54;99348.20;108872;1279;23505;-61
2022/06/08 02:04:29;;;;;;;3.20;2.20;;;;;;;14.58;72.78;99355.48;108655;1281;139887;-61
2022/06/08 02:07:14;;;;;;;4.10;2.80;;;;;;;14.56;72.81;99357.51;108696;1281;22466;-61
2022/06/08 02:10:13;;;;;;;6.40;3.70;;;;;;;14.54;72.90;99356.20;108615;1281;139362;-60
2022/06/08 02:12:43;;;;;;;7.00;2.90;;;;;;;14.54;73.04;99357.79;108122;1286;22486;-61
2022/06/08 02:15:16;;;;;;;4.80;3.00;;;;;;;14.54;73.13;99361.95;107932;1284;140185;-58
2022/06/08 02:17:48;;;;;;;5.20;2.60;;;;;;;14.55;73.48;99359.76;108317;1284;22482;-61
2022/06/08 02:20:36;;;;;;;5.00;3.20;;;;;;;14.56;73.48;99361.23;108471;1284;22773;-60
2022/06/08 02:23:08;;;;;;;4.70;2.40;;;;;;;14.57;73.68;99360.63;108498;1283;138140;-60
2022/06/08 02:25:46;;;;;;;5.30;2.90;;;;;;;14.55;73.76;99361.06;108379;1284;22439;-60
2022/06/08 02:28:38;;;;;;;3.40;2.70;;;;;;;14.57;74.21;99362.68;108403;1284;139782;-60
2022/06/08 02:31:16;;;;;;;8.30;2.70;;;;;;;14.59;74.24;99363.48;108425;1284;22485;-61
2022/06/08 02:36:34;;;;;;;6.00;2.80;;;;;;;14.62;74.62;99362.85;108403;1284;23437;-61
2022/06/08 02:39:03;;;;;;;4.60;3.60;;;;;;;14.64;74.90;99362.95;108245;1284;139478;-61
2022/06/08 02:41:31;;;;;;;6.10;3.00;;;;;;;14.69;74.99;99367.04;108489;1284;22482;-61
2022/06/08 02:44:03;;;;;;;6.60;3.90;;;;;;;14.72;75.23;99366.33;108470;1283;22584;-61
2022/06/08 02:46:39;;;;;;;11.90;6.20;;;;;;;14.77;75.52;99368.64;105884;1285;138563;-60
2022/06/08 02:49:07;;;;;;;11.30;6.50;;;;;;;14.82;75.71;99368.59;109149;1274;22510;-61
2022/06/08 02:51:35;;;;;;;19.80;8.20;;;;;;;14.88;76.03;99371.44;109193;1274;139906;-61
2022/06/08 02:54:04;;;;;;;21.00;11.20;;;;;;;14.95;76.31;99369.95;109063;1274;22448;-61
2022/06/08 02:56:53;;;;;;;23.40;11.20;;;;;;;15.02;76.60;99368.28;109262;1274;22439;-61
2022/06/08 02:59:22;;;;;;;23.90;12.00;;;;;;;15.11;77.02;99371.97;109093;1274;139974;-61
2022/06/08 03:01:51;;;;;;;29.70;14.60;;;;;;;15.20;77.45;99372.08;109238;1276;22447;-61
2022/06/08 03:04:20;;;;;;;27.50;13.70;;;;;;;15.30;77.77;99370.70;109114;1274;138539;-61
2022/06/08 03:06:51;;;;;;;33.50;16.30;;;;;;;15.40;78.14;99368.77;109199;1274;22575;-61
2022/06/08 03:09:19;;;;;;;22.10;13.10;;;;;;;15.51;78.54;99368.73;108839;1276;139039;-61
2022/06/08 03:11:50;;;;;;;28.00;15.80;;;;;;;15.63;78.96;99363.39;109146;1274;23282;-61
2022/06/08 03:14:17;;;;;;;32.00;15.70;;;;;;;15.76;79.29;99363.50;109131;1274;22466;-61
2022/06/08 03:16:56;;;;;;;29.20;16.10;;;;;;;15.88;79.62;99366.40;106279;1277;139222;-60
2022/06/08 03:19:24;;;;;;;25.60;14.80;;;;;;;16.02;79.87;99365.77;109253;1276;22928;-61
2022/06/08 03:21:51;;;;;;;23.80;14.10;;;;;;;16.14;80.03;99360.02;109194;1274;138431;-61
2022/06/08 03:24:17;;;;;;;23.20;13.40;;;;;;;16.27;80.11;99361.14;109325;1274;22559;-61
2022/06/08 03:26:47;;;;;;;26.90;14.50;;;;;;;16.39;80.14;99357.15;109263;1276;23161;-61
2022/06/08 03:29:15;;;;;;;28.80;14.40;;;;;;;16.52;79.73;99356.66;109197;1274;138667;-61
2022/06/08 03:31:42;;;;;;;22.10;12.10;;;;;;;16.63;78.04;99355.82;109235;1276;22468;-61
2022/06/08 03:34:09;;;;;;;25.40;10.10;;;;;;;16.77;77.12;99357.14;109194;1274;138425;-61
2022/06/08 03:36:36;;;;;;;15.80;8.90;;;;;;;16.91;75.95;99359.57;109236;1275;22581;-61
2022/06/08 03:39:04;;;;;;;18.90;10.50;;;;;;;17.06;75.09;99360.13;109324;1274;138407;-61
2022/06/08 03:41:31;;;;;;;13.80;8.50;;;;;;;17.21;74.56;99359.34;109337;1274;22449;-61
2022/06/08 03:43:58;;;;;;;18.50;9.50;;;;;;;17.34;73.89;99357.10;109356;1274;22437;-61
2022/06/08 03:46:26;;;;;;;14.60;8.10;;;;;;;17.47;72.97;99359.24;109247;1274;140276;-61
2022/06/08 03:48:57;;;;;;;14.60;7.30;;;;;;;17.59;72.09;99356.67;109306;1276;22475;-61
2022/06/08 03:51:24;;;;;;;11.30;6.20;;;;;;;17.71;71.09;99359.31;109140;1276;138556;-61
2022/06/08 03:54:16;;;;;;;10.80;5.00;;;;;;;17.81;69.85;99355.02;109191;1277;23355;-61
2022/06/08 03:56:45;;;;;;;14.50;5.00;;;;;;;17.97;68.80;99355.48;106394;1274;22547;-60
2022/06/08 03:59:12;;;;;;;14.30;4.20;;;;;;;18.10;68.31;99358.77;104788;1275;138957;-60
2022/06/08 04:01:39;;;;;;;6.40;3.60;;;;;;;18.22;67.26;99360.42;104980;1276;22557;-60
2022/06/08 04:04:07;;;;;;;4.80;2.90;;;;;;;18.33;66.26;99359.76;104918;1275;138752;-61
2022/06/08 04:06:34;;;;;;;3.50;2.60;;;;;;;18.44;65.37;99355.30;105066;1274;22560;-61
2022/06/08 04:09:01;;;;;;;8.10;2.60;;;;;;;18.53;64.20;99356.50;105001;1275;139329;-61
2022/06/08 04:11:29;;;;;;;4.00;2.30;;;;;;;18.61;63.56;99358.30;104963;1277;22720;-61
2022/06/08 04:13:59;;;;;;;5.10;2.00;;;;;;;18.69;63.16;99363.78;109264;1276;22469;-61
2022/06/08 04:16:27;;;;;;;5.10;2.00;;;;;;;18.77;62.66;99364.87;109221;1274;139073;-62
2022/06/08 04:21:27;;;;;;;2.10;1.80;;;;;;;18.94;62.04;99363.17;101851;1312;545822;-63
2022/06/08 04:23:58;;;;;;;5.20;1.90;;;;;;;19.01;61.83;99364.33;103951;1287;24261;-62
2022/06/08 04:26:25;;;;;;;4.10;2.10;;;;;;;19.10;61.39;99366.40;104164;1287;24244;-62
2022/06/08 04:28:57;;;;;;;10.90;2.90;;;;;;;19.18;60.62;99364.74;104074;1286;137546;-61
2022/06/08 04:31:24;;;;;;;4.10;2.30;;;;;;;19.25;60.21;99365.75;103782;1289;22566;-62
2022/06/08 04:33:56;;;;;;;11.10;2.80;;;;;;;19.33;59.72;99359.64;107532;1286;210442;-62
2022/06/08 04:36:27;;;;;;;4.30;2.20;;;;;;;19.39;59.45;99366.62;108181;1286;22450;-62
2022/06/08 04:38:54;;;;;;;3.10;1.70;;;;;;;19.47;59.10;99365.22;108279;1286;22517;-63
2022/06/08 04:41:22;;;;;;;4.80;3.00;;;;;;;19.53;58.99;99363.34;109015;1277;137206;-62
2022/06/08 04:43:49;;;;;;;4.10;2.40;;;;;;;19.60;59.28;99365.96;108973;1280;22541;-62
2022/06/08 04:46:18;;;;;;;4.50;2.40;;;;;;;19.67;58.94;99365.75;108696;1279;138083;-62
2022/06/08 04:48:47;;;;;;;8.00;2.80;;;;;;;19.73;58.82;99365.99;108698;1281;23159;-62
2022/06/08 04:51:16;;;;;;;4.90;2.90;;;;;;;19.81;58.71;99365.92;108445;1281;137517;-60
2022/06/08 04:53:44;;;;;;;8.80;5.20;;;;;;;19.87;58.82;99369.17;108566;1281;22463;-59
2022/06/08 04:56:13;;;;;;;16.50;6.50;;;;;;;19.96;58.66;99373.54;109371;1274;22507;-60
2022/06/08 04:58:41;;;;;;;11.10;6.60;;;;;;;20.05;58.25;99370.81;109129;1274;137861;-59
2022/06/08 05:01:08;;;;;;;9.80;5.10;;;;;;;20.16;58.12;99372.65;109336;1275;23363;-59
2022/06/08 05:03:35;;;;;;;5.10;2.80;;;;;;;20.26;57.80;99364.80;109216;1274;138770;-59
2022/06/08 05:06:02;;;;;;;9.10;2.20;;;;;;;20.38;57.55;99371.50;109090;1276;22557;-59
2022/06/08 05:08:34;;;;;;;8.20;2.00;;;;;;;20.54;57.37;99371.88;109314;1274;22539;-59
2022/06/08 05:11:04;;;;;;;4.80;2.00;;;;;;;20.74;57.07;99367.98;109106;1274;138292;-59
2022/06/08 05:13:32;;;;;;;3.00;2.30;;;;;;;21.01;56.42;99368.25;109409;1274;22450;-59
2022/06/08 05:16:04;;;;;;;7.80;3.10;;;;;;;21.31;55.93;99368.02;109146;1275;137910;-59
2022/06/08 05:18:31;;;;;;;30.50;20.60;;;;;;;21.59;55.36;99368.08;109255;1274;22550;-59
2022/06/08 05:21:00;;;;;;;61.00;38.00;;;;;;;21.89;54.74;99369.27;109000;1274;139047;-60
2022/06/08 05:23:33;;;;;;;57.30;32.80;;;;;;;22.26;53.88;99368.17;109156;1275;22470;-59
2022/06/08 05:26:02;;;;;;;23.60;15.10;;;;;;;22.69;53.23;99366.52;107655;1276;25937;-59
2022/06/08 05:28:29;;;;;;;13.50;8.40;;;;;;;23.03;52.27;99367.66;107472;1275;137445;-60
2022/06/08 05:30:58;;;;;;;12.70;7.30;;;;;;;23.44;51.21;99369.63;109282;1274;23207;-60
2022/06/08 05:33:28;;;;;;;17.50;9.90;;;;;;;23.91;49.96;99364.07;109154;1276;137503;-59
2022/06/08 05:35:58;;;;;;;22.20;10.20;;;;;;;24.39;48.85;99360.04;109168;1276;23213;-58
2022/06/08 05:38:27;;;;;;;7.30;5.10;;;;;;;24.89;47.99;99354.70;109274;1275;22447;-57
2022/06/08 05:40:54;;;;;;;9.70;5.20;;;;;;;25.35;46.79;99354.48;109108;1276;138330;-58
2022/06/08 05:43:22;;;;;;;6.00;2.80;;;;;;;25.79;45.82;99352.55;109138;1276;22619;-58
2022/06/08 05:45:52;;;;;;;11.10;3.00;;;;;;;26.20;44.60;99353.47;109233;1276;139000;-58
2022/06/08 05:48:19;;;;;;;7.80;3.50;;;;;;;26.55;43.48;99353.40;109169;1276;22384;-57
2022/06/08 05:50:46;;;;;;;7.20;3.30;;;;;;;26.79;42.50;99350.77;109060;1278;22456;-58
2022/06/08 05:53:15;;;;;;;8.30;3.40;;;;;;;26.97;41.71;99349.52;109055;1276;137887;-59
2022/06/08 05:55:42;;;;;;;4.60;2.50;;;;;;;27.08;41.38;99352.71;109239;1276;22475;-59
2022/06/08 05:58:09;;;;;;;5.50;2.30;;;;;;;27.14;40.54;99349.20;109197;1276;137067;-58
2022/06/08 06:00:37;;;;;;;7.00;2.50;;;;;;;27.15;40.48;99351.77;109160;1276;23168;-58
2022/06/08 06:03:04;;;;;;;19.80;2.40;;;;;;;27.13;40.43;99350.85;109168;1276;137797;-58
2022/06/08 06:05:36;;;;;;;3.10;1.90;;;;;;;27.04;40.77;99349.27;109222;1276;22421;-59
2022/06/08 06:08:06;;;;;;;21.20;4.40;;;;;;;26.93;40.70;99344.44;109322;1274;22589;-58
2022/06/08 06:10:37;;;;;;;5.50;2.70;;;;;;;26.85;40.68;99342.81;109127;1276;137734;-58
2022/06/08 06:13:05;;;;;;;4.00;2.60;;;;;;;26.78;40.79;99344.38;109118;1276;22548;-58
2022/06/08 06:15:55;;;;;;;6.90;2.50;;;;;;;26.69;40.46;99340.69;109117;1275;138260;-59
2022/06/08 06:18:22;;;;;;;2.70;1.90;;;;;;;26.61;40.43;99341.01;109097;1276;23195;-58
2022/06/08 06:21:05;;;;;;;2.80;2.10;;;;;;;26.52;40.28;99344.34;108939;1276;137646;-58
2022/06/08 06:23:55;;;;;;;4.90;1.80;;;;;;;26.43;40.86;99340.95;109022;1276;22476;-60
2022/06/08 06:26:35;;;;;;;5.90;2.50;;;;;;;26.34;40.87;99342.12;109106;1276;22510;-60
2022/06/08 06:29:31;;;;;;;4.50;2.20;;;;;;;26.23;40.61;99338.84;108446;1276;22568;-59
2022/06/08 06:32:32;;;;;;;5.90;1.60;;;;;;;26.13;40.42;99338.77;105121;1276;22566;-59
2022/06/08 06:34:59;;;;;;;9.20;2.60;;;;;;;26.04;40.53;99337.31;109319;1276;23029;-59
2022/06/08 06:37:26;;;;;;;6.10;2.10;;;;;;;25.96;40.76;99336.73;109229;1274;23125;-60
2022/06/08 06:39:54;;;;;;;3.60;1.60;;;;;;;25.88;40.50;99335.27;109330;1276;22484;-60
2022/06/08 06:42:30;;;;;;;2.20;2.00;;;;;;;25.80;40.39;99333.35;109297;1276;23201;-59
2022/06/08 06:45:12;;;;;;;3.60;1.80;;;;;;;25.70;40.51;99340.21;109304;1276;22421;-59
2022/06/08 06:47:43;;;;;;;5.70;2.20;;;;;;;25.63;40.67;99336.37;109202;1276;23214;-60
2022/06/08 06:50:18;;;;;;;5.40;1.80;;;;;;;25.59;40.59;99333.94;109186;1276;22543;-62
2022/06/08 06:52:46;;;;;;;3.40;1.70;;;;;;;25.54;39.95;99334.61;109253;1275;23064;-62
2022/06/08 06:55:28;;;;;;;6.50;2.60;;;;;;;25.47;40.62;99334.70;109209;1276;22430;-62
2022/06/08 06:57:59;;;;;;;8.80;2.70;;;;;;;25.44;40.75;99341.15;109194;1276;23496;-60
2022/06/08 07:00:30;;;;;;;5.10;2.10;;;;;;;25.42;40.67;99341.26;109232;1276;22497;-62
2022/06/08 07:02:59;;;;;;;5.20;1.70;;;;;;;25.42;40.75;99336.15;109210;1276;23104;-62
2022/06/08 07:05:30;;;;;;;4.20;1.60;;;;;;;25.42;40.71;99337.52;108930;1275;24535;-61
2022/06/08 07:07:57;;;;;;;2.50;1.50;;;;;;;25.45;40.51;99337.56;105197;1276;24214;-61
2022/06/08 07:10:24;;;;;;;4.70;1.80;;;;;;;25.46;40.41;99336.00;105180;1276;22615;-61
2022/06/08 07:12:51;;;;;;;6.20;2.20;;;;;;;25.47;39.91;99336.35;104951;1276;24811;-61
2022/06/08 07:15:20;;;;;;;4.10;1.90;;;;;;;25.50;40.09;99332.86;105091;1276;22581;-61
2022/06/08 07:17:47;;;;;;;5.50;2.20;;;;;;;25.55;40.08;99331.75;109370;1276;22250;-62
2022/06/08 07:20:14;;;;;;;3.40;2.00;;;;;;;25.58;40.95;99331.60;109386;1275;22464;-62
2022/06/08 07:22:41;;;;;;;2.50;1.80;;;;;;;25.60;40.48;99326.23;109326;1276;22453;-62
2022/06/08 07:25:08;;;;;;;4.50;1.90;;;;;;;25.58;39.89;99323.08;109384;1276;22441;-62
2022/06/08 07:27:36;;;;;;;2.20;1.90;;;;;;;25.55;40.05;99324.42;109379;1274;22462;-63
2022/06/08 07:30:04;;;;;;;1.90;1.60;;;;;;;25.53;40.44;99329.27;109298;1276;22255;-62
2022/06/08 07:32:31;;;;;;;2.40;1.80;;;;;;;25.53;40.72;99328.08;109292;1275;22495;-63
2022/06/08 07:34:58;;;;;;;6.60;1.90;;;;;;;25.54;40.24;99329.27;109410;1276;22543;-63
2022/06/08 07:37:25;;;;;;;6.00;2.30;;;;;;;25.56;39.97;99327.65;109405;1275;22442;-63
2022/06/08 07:39:52;;;;;;;8.60;2.20;;;;;;;25.59;40.48;99328.44;109358;1276;22440;-63
2022/06/08 07:42:19;;;;;;;2.40;1.70;;;;;;;25.64;40.06;99324.77;109418;1276;23237;-63
2022/06/08 07:44:45;;;;;;;10.80;1.80;;;;;;;25.67;39.05;99328.20;109424;1274;22450;-63
2022/06/08 07:47:12;;;;;;;2.00;1.80;;;;;;;25.70;39.26;99330.64;109298;1276;22422;-62
2022/06/08 07:49:41;;;;;;;8.70;1.80;;;;;;;25.75;39.58;99327.31;109333;1276;22465;-63
2022/06/08 07:52:15;;;;;;;6.50;1.90;;;;;;;25.81;39.92;99327.70;109326;1275;22422;-63
2022/06/08 07:54:43;;;;;;;8.30;2.20;;;;;;;25.84;40.05;99330.55;109422;1275;22420;-63
2022/06/08 07:57:18;;;;;;;11.20;2.30;;;;;;;25.87;39.83;99326.86;109325;1276;22395;-63
2022/06/08 07:59:46;;;;;;;1.90;1.70;;;;;;;25.88;39.27;99329.84;109359;1276;23532;-62
2022/06/08 08:02:14;;;;;;;4.00;1.60;;;;;;;25.86;38.60;99326.70;109314;1276;23279;-62
2022/06/08 08:04:41;;;;;;;6.90;1.90;;;;;;;25.85;38.90;99328.89;109403;1275;22511;-62
2022/06/08 08:07:09;;;;;;;4.10;1.70;;;;;;;25.88;37.71;99328.98;105755;1277;22585;-62
2022/06/08 08:09:37;;;;;;;4.50;1.90;;;;;;;25.88;37.71;99330.02;105123;1276;24291;-62
2022/06/08 08:12:05;;;;;;;7.30;2.10;;;;;;;25.82;38.18;99333.78;105190;1276;22626;-62
2022/06/08 08:14:33;;;;;;;1.80;1.40;;;;;;;25.76;38.60;99336.41;109350;1275;22425;-63
2022/06/08 08:17:02;;;;;;;6.20;1.90;;;;;;;25.69;39.68;99334.21;109356;1276;22465;-63
2022/06/08 08:19:29;;;;;;;2.10;1.50;;;;;;;25.66;39.36;99338.21;109381;1275;22495;-63
2022/06/08 08:21:56;;;;;;;2.20;1.60;;;;;;;25.62;39.24;99330.77;109360;1276;22425;-62
2022/06/08 08:24:23;;;;;;;2.00;1.40;;;;;;;25.59;39.71;99330.27;109331;1276;22431;-62
2022/06/08 08:26:50;;;;;;;2.10;1.60;;;;;;;25.54;40.37;99332.71;109409;1275;22552;-62
2022/06/08 08:29:17;;;;;;;2.50;1.80;;;;;;;25.51;40.53;99330.31;109368;1277;22553;-62
2022/06/08 08:31:44;;;;;;;6.40;2.20;;;;;;;25.47;41.20;99330.78;109337;1276;22440;-62
2022/06/08 08:34:11;;;;;;;2.90;1.40;;;;;;;25.44;40.37;99327.52;109383;1276;23242;-63
2022/06/08 08:36:38;;;;;;;6.10;1.40;;;;;;;25.40;38.55;99328.52;109370;1276;23108;-63
2022/06/08 08:39:06;;;;;;;1.60;1.30;;;;;;;25.36;40.01;99322.70;109288;1277;22483;-57
2022/06/08 08:44:28;;;;;;;4.40;1.50;;;;;;;25.37;39.47;99321.39;109188;1275;22484;-63
2022/06/08 08:47:23;;;;;;;2.70;1.70;;;;;;;25.42;38.92;99320.52;109314;1276;22370;-63
2022/06/08 08:49:55;;;;;;;7.60;2.00;;;;;;;25.47;39.31;99321.60;109400;1274;22450;-62
2022/06/08 08:52:35;;;;;;;2.00;1.70;;;;;;;25.48;38.43;99324.60;109301;1274;22258;-62
2022/06/08 08:55:33;;;;;;;6.40;2.40;;;;;;;25.47;38.16;99321.86;109448;1274;23625;-63
2022/06/08 08:58:02;;;;;;;5.30;2.30;;;;;;;25.46;38.46;99319.52;108577;1284;22598;-62
2022/06/08 09:00:38;;;;;;;3.20;1.90;;;;;;;25.46;39.26;99314.48;108567;1282;22645;-62
2022/06/08 09:03:21;;;;;;;8.20;1.60;;;;;;;25.48;39.61;99309.83;108565;1283;22488;-62
2022/06/08 09:05:51;;;;;;;11.10;1.90;;;;;;;25.52;39.05;99312.26;108518;1283;22397;-62
2022/06/08 09:08:19;;;;;;;2.50;1.70;;;;;;;25.59;37.83;99310.34;108693;1282;23584;-63
2022/06/08 09:10:50;;;;;;;7.50;1.90;;;;;;;25.65;38.15;99305.82;108563;1283;22463;-62
2022/06/08 09:13:23;;;;;;;2.00;1.70;;;;;;;25.69;38.23;99303.74;108722;1282;22450;-62
2022/06/08 09:15:54;;;;;;;2.70;1.80;;;;;;;25.77;38.07;99307.98;108571;1282;22448;-63
2022/06/08 09:18:31;;;;;;;2.60;2.00;;;;;;;25.84;37.81;99302.80;108525;1283;22945;-62
2022/06/08 09:20:58;;;;;;;8.80;1.90;;;;;;;25.88;37.70;99300.41;108561;1282;22509;-63
2022/06/08 09:23:43;;;;;;;5.70;2.10;;;;;;;25.91;38.01;99304.79;108554;1284;22433;-62
2022/06/08 09:26:16;;;;;;;4.80;2.00;;;;;;;25.96;38.18;99304.44;108670;1282;22325;-63
2022/06/08 09:28:43;;;;;;;2.10;1.70;;;;;;;25.99;37.60;99306.88;108696;1282;22436;-63
2022/06/08 09:31:36;;;;;;;1.60;1.40;;;;;;;25.98;37.09;99301.43;108568;1283;22471;-63
2022/06/08 09:34:05;;;;;;;4.10;1.70;;;;;;;25.96;37.23;99297.48;108552;1283;22624;-63
2022/06/08 09:36:32;;;;;;;2.20;1.90;;;;;;;25.94;37.22;99294.58;109421;1276;23226;-63
2022/06/08 09:38:59;;;;;;;5.50;1.60;;;;;;;25.93;38.18;99292.17;109299;1276;22471;-63
2022/06/08 09:41:51;;;;;;;3.50;1.80;;;;;;;25.98;37.91;99292.75;109330;1276;23194;-62
2022/06/08 09:44:23;;;;;;;5.10;1.90;;;;;;;26.04;37.40;99289.84;109368;1276;22455;-62
2022/06/08 09:53:15;;;;;;;4.60;2.30;;;;;;;26.14;37.82;99291.64;109232;1277;23299;-63
2022/06/08 09:56:06;;;;;;;2.50;1.30;;;;;;;26.16;38.20;99285.78;109308;1276;22390;-63
2022/06/08 09:58:51;;;;;;;4.70;2.80;;;;;;;26.17;37.81;99284.05;109370;1276;23151;-63
2022/06/08 10:01:29;;;;;;;3.20;1.90;;;;;;;26.17;37.71;99283.95;109335;1276;22446;-63
2022/06/08 10:04:37;;;;;;;2.70;1.70;;;;;;;26.16;37.82;99286.24;109266;1277;23755;-63
2022/06/08 10:07:19;;;;;;;13.30;3.00;;;;;;;26.16;37.57;99279.23;108701;1283;22475;-62
2022/06/08 10:10:09;;;;;;;;;;;;;;;26.18;37.90;99278.71;108851;1281;22590;-62
2022/06/08 10:12:57;;;;;;;7.30;1.90;;;;;;;26.22;37.43;99275.94;108648;1282;23342;-62
2022/06/08 10:15:31;;;;;;;2.90;1.60;;;;;;;26.27;37.74;99270.85;108698;1282;22472;-62
2022/06/08 10:18:24;;;;;;;9.90;1.80;;;;;;;26.31;38.51;99274.87;108727;1283;22409;-62
2022/06/08 10:20:55;;;;;;;7.90;2.20;;;;;;;26.37;38.32;99272.36;108680;1282;23351;-60
2022/06/08 10:23:34;;;;;;;4.30;1.70;;;;;;;26.43;38.06;99273.02;108853;1281;22514;-61
2022/06/08 10:26:15;;;;;;;10.20;1.80;;;;;;;26.49;37.58;99266.27;108787;1281;23377;-61
2022/06/08 10:28:46;;;;;;;6.70;1.70;;;;;;;26.52;37.56;99264.81;108659;1283;22488;-61
2022/06/08 10:31:31;;;;;;;2.00;1.50;;;;;;;26.53;37.70;99262.68;108668;1281;22443;-61
2022/06/08 10:34:13;;;;;;;3.80;2.30;;;;;;;26.56;37.05;99260.00;108620;1282;22530;-62
2022/06/08 10:36:41;;;;;;;3.70;1.70;;;;;;;26.59;37.36;99262.48;108615;1283;22528;-61
2022/06/08 10:39:08;;;;;;;4.80;2.40;;;;;;;26.64;37.71;99262.08;108635;1283;23684;-61
2022/06/08 10:44:37;;;;;;;3.50;1.70;;;;;;;26.72;37.35;99256.70;109387;1276;22685;-61
2022/06/08 10:47:13;;;;;;;5.60;1.80;;;;;;;26.76;35.99;99252.31;109443;1273;22424;-61
2022/06/08 10:49:40;;;;;;;2.70;1.80;;;;;;;26.77;35.64;99250.97;109337;1276;22483;-61
2022/06/08 10:52:19;;;;;;;7.00;2.10;;;;;;;26.78;36.17;99245.48;109305;1276;23225;-61
2022/06/08 10:54:57;;;;;;;3.60;2.20;;;;;;;26.79;36.77;99243.59;109303;1276;23757;-61
2022/06/08 10:57:36;;;;;;;2.30;1.90;;;;;;;26.82;37.10;99245.08;109330;1275;23426;-61
2022/06/08 11:00:18;;;;;;;3.70;2.00;;;;;;;26.84;36.22;99247.24;109255;1277;22453;-61
2022/06/08 11:02:48;;;;;;;2.60;2.00;;;;;;;26.83;36.03;99244.52;109229;1274;22569;-60
2022/06/08 11:05:35;;;;;;;5.40;2.20;;;;;;;26.80;35.91;99249.77;109376;1274;22538;-61
2022/06/08 11:08:04;;;;;;;;;;;;;;;26.73;34.98;99243.71;109383;1276;22474;-61
2022/06/08 11:10:44;;;;;;;2.30;2.00;;;;;;;26.63;34.54;99240.66;109370;1276;22427;-61
2022/06/08 11:13:22;;;;;;;2.90;1.90;;;;;;;26.51;35.07;99245.23;109346;1276;22412;-61
2022/06/08 11:15:54;;;;;;;3.80;2.00;;;;;;;26.44;36.09;99242.55;109317;1275;22458;-61
2022/06/08 11:18:46;;;;;;;2.90;2.10;;;;;;;26.40;35.81;99248.46;109115;1276;22554;-61
2022/06/08 11:21:13;;;;;;;6.30;1.80;;;;;;;26.38;35.44;99242.45;109355;1276;23026;-61
2022/06/08 11:23:49;;;;;;;2.10;1.60;;;;;;;26.37;35.24;99244.10;109311;1276;22441;-62
2022/06/08 11:26:17;;;;;;;3.30;1.80;;;;;;;26.35;35.79;99239.52;109179;1276;22461;-62
2022/06/08 11:28:44;;;;;;;3.70;1.70;;;;;;;26.35;36.37;99235.77;109133;1276;22406;-61
2022/06/08 11:31:27;;;;;;;6.10;1.90;;;;;;;26.37;37.17;99236.84;109268;1274;22451;-61
2022/06/08 11:34:03;;;;;;;4.70;1.70;;;;;;;26.41;37.20;99235.06;109399;1274;23842;-61
2022/06/08 11:37:03;;;;;;;2.60;2.00;;;;;;;26.49;36.11;99229.24;109302;1277;22565;-62
2022/06/08 11:39:41;;;;;;;2.20;1.90;;;;;;;26.58;36.06;99232.59;109350;1276;22469;-62
2022/06/08 11:42:15;;;;;;;16.80;4.50;;;;;;;26.62;36.32;99228.44;109361;1277;22420;-62
2022/06/08 11:44:48;;;;;;;7.20;2.00;;;;;;;26.65;35.80;99228.33;109207;1276;23515;-62
2022/06/08 11:47:27;;;;;;;12.00;2.60;;;;;;;26.67;36.13;99224.53;109181;1276;22501;-62
2022/06/08 11:50:11;;;;;;;6.40;2.30;;;;;;;26.67;35.76;99218.86;109240;1276;22486;-62
2022/06/08 11:52:41;;;;;;;2.40;1.70;;;;;;;26.65;35.61;99222.83;109244;1275;22981;-62
2022/06/08 11:55:28;;;;;;;3.70;1.70;;;;;;;26.61;35.39;99215.16;109255;1276;22645;-56
2022/06/08 11:57:59;;;;;;;2.40;1.60;;;;;;;26.50;34.81;99206.59;104790;1278;22623;-61
2022/06/08 12:00:50;;;;;;;3.00;1.80;;;;;;;26.45;35.35;99208.80;104843;1276;24309;-61
2022/06/08 12:03:27;;;;;;;5.00;1.80;;;;;;;26.45;35.98;99206.23;105041;1276;22551;-60
2022/06/08 12:06:08;;;;;;;4.10;1.70;;;;;;;26.48;36.27;99204.70;104906;1276;22782;-59